Terminal Aerodrome Forecast
Issued by NWS Cleveland, OH

Home | Current Version | Previous Version | Text Only | Print | Product List | Glossary On
Versions: 1 2 3 4 5 6 7 8 9 10 11 12 13 14 15 16
000
FTUS41 KCLE 221700
TAFMFD
TAF
KMFD 221737Z 2218/2318 21014G24KT P6SM OVC040
      TEMPO 2219/2223 5SM -RA BKN020
     FM230200 18008KT 5SM BR OVC020
     FM231500 20012KT P6SM VCSH OVC025=

USA.gov is the U.S. government's official web portal to all federal, state and local government web resources and services.